Terminal Aerodrome Forecast
Issued by NWS

Home | Current Version | Previous Version | Graphics & Text | Print | Product List | Glossary On
Versions: 1 2 3 4 5 6 7 8 9 10 11 12 13 14 15 16 17 18 19 20 21 22
000
FTUS43 KLSX 251135
TAFSUS
TAF
KSUS 251135Z 2512/2612 VRB03KT 5SM BR SCT250
     FM251300 22005KT P6SM SCT250
     FM251600 24007KT P6SM SCT070
     FM252300 25008KT 6SM -SHRA VCTS BKN060CB
     FM260300 30008KT P6SM BKN050=

USA.gov is the U.S. government's official web portal to all federal, state and local government web resources and services.